FNSA

Saurimo Airport

Saurimo, Angola
METAR FNSA 171400Z 00000KT 9999 BKN025 26/21 Q1018
Observed Flight Rules
Dec-17 @ 14:00 UTC (13 hours ago) Marginal Visual Flight Rules
Wind Visibility Clouds
Calm 10,000+ meters
  • Broken at 2,500' AGL
Temperatures Readings
Current 26°C / 79°F
Dewpoint 21°C / 70°F
Humidity 74%
Altimeter 30.06" Hg
Pressure 1018 hPa
Elevation 1093
METAR FNSA 171400Z 00000KT 9999 BKN025 26/21 Q1018
Observed Flight Rules
Dec-17 @ 14:00 UTC
(13 hours ago)
MVFR
Wind Visibility
Calm 10,000+ meters
Clouds
  • Broken at 2,500' AGL
Temperature Dewpoint
26°C / 79°F 21°C / 70°F
Humidity Altimeter Pressure
74% 30.06" Hg 1018 hPa